WIF2TJ ENEV-ENTC
Flight info
| Callsign | WIF2TJ |
|---|---|
| Flight time | 0h 25m |
| Altitude | 15000 |
| Route | BARVI |
| Aircraft | DH8B/M-SDFGR/S |
Departure
| Time | 2026-05-05 07:20 |
|---|---|
| Airport | Harstad/Narvik Airport (ENEV) |
Arrival
| Time | 2026-05-05 07:45 |
|---|---|
| Airport | Tromsø Airport (ENTC) |
| Time | Latitude | Longitude | Altitude | Speed | Heading |
|---|---|---|---|---|---|
| 2026-05-05 07:12 | 68.48970 | 16.68540 | 88 ft | 0 kts | 357° |
| 2026-05-05 07:18 | 68.48973 | 16.68537 | 88 ft | 2 kts | 330° |
| 2026-05-05 07:18 | 68.48951 | 16.68494 | 88 ft | 9 kts | 200° |
| 2026-05-05 07:18 | 68.48891 | 16.68392 | 87 ft | 12 kts | 262° |
| 2026-05-05 07:19 | 68.48888 | 16.68098 | 85 ft | 17 kts | 269° |
| 2026-05-05 07:19 | 68.48888 | 16.67862 | 91 ft | 5 kts | 327° |
| 2026-05-05 07:19 | 68.48969 | 16.67850 | 92 ft | 53 kts | 358° |
| 2026-05-05 07:19 | 68.49712 | 16.67768 | 155 ft | 142 kts | 358° |
| 2026-05-05 07:20 | 68.50772 | 16.67693 | 742 ft | 161 kts | 357° |
| 2026-05-05 07:20 | 68.51882 | 16.67555 | 1557 ft | 165 kts | 353° |
| 2026-05-05 07:20 | 68.53052 | 16.67340 | 2339 ft | 172 kts | 355° |
| 2026-05-05 07:20 | 68.54266 | 16.67253 | 3133 ft | 176 kts | 356° |
| 2026-05-05 07:21 | 68.55494 | 16.67094 | 3936 ft | 177 kts | 355° |
| 2026-05-05 07:21 | 68.56736 | 16.66937 | 4750 ft | 179 kts | 356° |
| 2026-05-05 07:21 | 68.57995 | 16.66803 | 5559 ft | 182 kts | 356° |
| 2026-05-05 07:21 | 68.59251 | 16.66648 | 6346 ft | 183 kts | 356° |
| 2026-05-05 07:22 | 68.60528 | 16.66604 | 7116 ft | 184 kts | 8° |
| 2026-05-05 07:22 | 68.61718 | 16.67915 | 7899 ft | 186 kts | 25° |
| 2026-05-05 07:22 | 68.62909 | 16.69347 | 8721 ft | 189 kts | 18° |
| 2026-05-05 07:22 | 68.64173 | 16.70527 | 9561 ft | 193 kts | 19° |
| 2026-05-05 07:23 | 68.65419 | 16.71875 | 10320 ft | 197 kts | 21° |
| 2026-05-05 07:23 | 68.66704 | 16.73215 | 11115 ft | 198 kts | 19° |
| 2026-05-05 07:23 | 68.68013 | 16.74530 | 11929 ft | 201 kts | 21° |
| 2026-05-05 07:23 | 68.69326 | 16.75939 | 12763 ft | 203 kts | 21° |
| 2026-05-05 07:24 | 68.70661 | 16.77298 | 13570 ft | 206 kts | 22° |
| 2026-05-05 07:24 | 68.71996 | 16.78698 | 14292 ft | 212 kts | 22° |
| 2026-05-05 07:24 | 68.73442 | 16.80225 | 14572 ft | 237 kts | 22° |
| 2026-05-05 07:24 | 68.75075 | 16.81905 | 14602 ft | 261 kts | 22° |
| 2026-05-05 07:25 | 68.76837 | 16.83753 | 14633 ft | 277 kts | 22° |
| 2026-05-05 07:25 | 68.78657 | 16.85675 | 14674 ft | 286 kts | 22° |
| 2026-05-05 07:25 | 68.80550 | 16.87646 | 14714 ft | 293 kts | 22° |
| 2026-05-05 07:25 | 68.82464 | 16.89662 | 14747 ft | 297 kts | 22° |
| 2026-05-05 07:26 | 68.84406 | 16.91720 | 14765 ft | 300 kts | 22° |
| 2026-05-05 07:26 | 68.86349 | 16.93759 | 14768 ft | 302 kts | 22° |
| 2026-05-05 07:26 | 68.88332 | 16.95862 | 14758 ft | 304 kts | 22° |
| 2026-05-05 07:26 | 68.90323 | 16.97978 | 14736 ft | 306 kts | 21° |
| 2026-05-05 07:27 | 68.92216 | 16.99972 | 14683 ft | 279 kts | 22° |
| 2026-05-05 07:27 | 68.94041 | 17.01925 | 14595 ft | 280 kts | 22° |
| 2026-05-05 07:27 | 68.95863 | 17.03872 | 14608 ft | 278 kts | 22° |
| 2026-05-05 07:27 | 68.97648 | 17.05766 | 14604 ft | 276 kts | 22° |
| 2026-05-05 07:28 | 68.99447 | 17.07698 | 14598 ft | 276 kts | 22° |
| 2026-05-05 07:28 | 69.01238 | 17.09618 | 14592 ft | 275 kts | 22° |
| 2026-05-05 07:28 | 69.02847 | 17.12334 | 14554 ft | 274 kts | 46° |
| 2026-05-05 07:28 | 69.03976 | 17.16580 | 14560 ft | 272 kts | 59° |
| 2026-05-05 07:29 | 69.05074 | 17.20903 | 14563 ft | 273 kts | 51° |
| 2026-05-05 07:29 | 69.06356 | 17.24819 | 14565 ft | 272 kts | 47° |
| 2026-05-05 07:29 | 69.07634 | 17.28634 | 14565 ft | 271 kts | 50° |
| 2026-05-05 07:29 | 69.08838 | 17.32700 | 14563 ft | 269 kts | 52° |
| 2026-05-05 07:30 | 69.10047 | 17.36707 | 14564 ft | 269 kts | 49° |
| 2026-05-05 07:30 | 69.12477 | 17.44569 | 14565 ft | 268 kts | 51° |
| 2026-05-05 07:30 | 69.13694 | 17.48560 | 14565 ft | 268 kts | 49° |
| 2026-05-05 07:31 | 69.14934 | 17.52505 | 14553 ft | 268 kts | 50° |
| 2026-05-05 07:31 | 69.16113 | 17.56488 | 14554 ft | 268 kts | 51° |
| 2026-05-05 07:31 | 69.17330 | 17.60456 | 14554 ft | 268 kts | 49° |
| 2026-05-05 07:31 | 69.18564 | 17.64462 | 14559 ft | 273 kts | 51° |
| 2026-05-05 07:32 | 69.19793 | 17.68610 | 14575 ft | 277 kts | 51° |
| 2026-05-05 07:32 | 69.21052 | 17.72713 | 14485 ft | 283 kts | 50° |
| 2026-05-05 07:32 | 69.22320 | 17.76898 | 13998 ft | 278 kts | 51° |
| 2026-05-05 07:32 | 69.23553 | 17.81057 | 13509 ft | 273 kts | 50° |
| 2026-05-05 07:33 | 69.24771 | 17.85040 | 12994 ft | 270 kts | 50° |
| 2026-05-05 07:33 | 69.25978 | 17.89073 | 12450 ft | 267 kts | 51° |
| 2026-05-05 07:33 | 69.27170 | 17.93093 | 11911 ft | 264 kts | 50° |
| 2026-05-05 07:33 | 69.28362 | 17.97019 | 11370 ft | 262 kts | 50° |
| 2026-05-05 07:34 | 69.29510 | 18.00902 | 10855 ft | 260 kts | 51° |
| 2026-05-05 07:34 | 69.30679 | 18.04833 | 10343 ft | 258 kts | 50° |
| 2026-05-05 07:34 | 69.31819 | 18.08626 | 9834 ft | 247 kts | 51° |
| 2026-05-05 07:34 | 69.32895 | 18.12284 | 9301 ft | 241 kts | 51° |
| 2026-05-05 07:35 | 69.33962 | 18.15878 | 8727 ft | 236 kts | 51° |
| 2026-05-05 07:35 | 69.35016 | 18.19417 | 8161 ft | 233 kts | 51° |
| 2026-05-05 07:35 | 69.36035 | 18.22907 | 7618 ft | 230 kts | 52° |
| 2026-05-05 07:35 | 69.37035 | 18.26415 | 7069 ft | 227 kts | 53° |
| 2026-05-05 07:36 | 69.38014 | 18.29922 | 6535 ft | 225 kts | 53° |
| 2026-05-05 07:36 | 69.38972 | 18.33426 | 6004 ft | 222 kts | 54° |
| 2026-05-05 07:36 | 69.39799 | 18.37026 | 5440 ft | 218 kts | 70° |
| 2026-05-05 07:36 | 69.39923 | 18.41220 | 4869 ft | 215 kts | 102° |
| 2026-05-05 07:37 | 69.39348 | 18.45069 | 4614 ft | 202 kts | 113° |
| 2026-05-05 07:37 | 69.39176 | 18.48754 | 4782 ft | 189 kts | 77° |
| 2026-05-05 07:37 | 69.39698 | 18.52125 | 4926 ft | 185 kts | 64° |
| 2026-05-05 07:37 | 69.40211 | 18.55570 | 4907 ft | 192 kts | 72° |
| 2026-05-05 07:38 | 69.40566 | 18.59302 | 4947 ft | 198 kts | 79° |
| 2026-05-05 07:38 | 69.40737 | 18.63180 | 4933 ft | 202 kts | 87° |
| 2026-05-05 07:38 | 69.40693 | 18.67176 | 4955 ft | 203 kts | 95° |
| 2026-05-05 07:38 | 69.40520 | 18.71140 | 4965 ft | 200 kts | 96° |
| 2026-05-05 07:39 | 69.40775 | 18.74840 | 4926 ft | 190 kts | 54° |
| 2026-05-05 07:39 | 69.41863 | 18.76671 | 4891 ft | 192 kts | 7° |
| 2026-05-05 07:39 | 69.43189 | 18.76222 | 4913 ft | 190 kts | 354° |
| 2026-05-05 07:39 | 69.44503 | 18.76347 | 4916 ft | 189 kts | 14° |
| 2026-05-05 07:40 | 69.45763 | 18.77149 | 4962 ft | 187 kts | 14° |
| 2026-05-05 07:40 | 69.47042 | 18.77931 | 4946 ft | 189 kts | 14° |
| 2026-05-05 07:40 | 69.48345 | 18.78739 | 4958 ft | 191 kts | 14° |
| 2026-05-05 07:40 | 69.49638 | 18.79590 | 4933 ft | 194 kts | 14° |
| 2026-05-05 07:41 | 69.51011 | 18.80497 | 4601 ft | 209 kts | 14° |
| 2026-05-05 07:41 | 69.52458 | 18.81454 | 4217 ft | 213 kts | 14° |
| 2026-05-05 07:41 | 69.53803 | 18.82330 | 3797 ft | 184 kts | 14° |
| 2026-05-05 07:41 | 69.54973 | 18.83102 | 3439 ft | 166 kts | 14° |
| 2026-05-05 07:42 | 69.56066 | 18.83823 | 3092 ft | 154 kts | 14° |
| 2026-05-05 07:42 | 69.57113 | 18.84517 | 2706 ft | 160 kts | 14° |
| 2026-05-05 07:42 | 69.58170 | 18.85217 | 2564 ft | 158 kts | 14° |
| 2026-05-05 07:42 | 69.59262 | 18.85918 | 2279 ft | 162 kts | 13° |
| 2026-05-05 07:43 | 69.60379 | 18.86649 | 1978 ft | 165 kts | 14° |
| 2026-05-05 07:43 | 69.61495 | 18.87391 | 1639 ft | 164 kts | 13° |
| 2026-05-05 07:43 | 69.62586 | 18.88114 | 1321 ft | 162 kts | 14° |
| 2026-05-05 07:43 | 69.63685 | 18.88819 | 1021 ft | 160 kts | 13° |
| 2026-05-05 07:44 | 69.64755 | 18.89534 | 786 ft | 151 kts | 13° |
| 2026-05-05 07:44 | 69.65717 | 18.90148 | 503 ft | 136 kts | 12° |
| 2026-05-05 07:44 | 69.66599 | 18.90733 | 253 ft | 124 kts | 14° |
| 2026-05-05 07:44 | 69.67396 | 18.91271 | 53 ft | 112 kts | 13° |
| 2026-05-05 07:45 | 69.67971 | 18.91646 | 33 ft | 32 kts | 12° |
| 2026-05-05 07:45 | 69.68065 | 18.91595 | 29 ft | 12 kts | 284° |
| 2026-05-05 07:45 | 69.68109 | 18.91339 | 29 ft | 17 kts | 319° |
| 2026-05-05 07:45 | 69.68141 | 18.91067 | 32 ft | 12 kts | 282° |
| 2026-05-05 07:46 | 69.68133 | 18.90882 | 33 ft | 9 kts | 196° |
| 2026-05-05 07:46 | 69.68106 | 18.90863 | 33 ft | 0 kts | 193° |